createdAt,value
2019-03-13T00:01:33.449Z,83.56
2019-03-13T00:04:00.235Z,83.99
2019-03-13T00:06:27.196Z,84.27
2019-03-13T00:08:53.981Z,83.79
2019-03-13T00:11:20.658Z,83.61
2019-03-13T00:13:47.462Z,83.77
2019-03-13T00:16:14.355Z,84.08
2019-03-13T00:18:41.121Z,84.13
2019-03-13T00:21:07.936Z,84.68
2019-03-13T00:23:34.630Z,84.64
2019-03-13T00:26:01.451Z,84.84
2019-03-13T00:28:28.243Z,84.63
2019-03-13T00:30:55.027Z,84.40
2019-03-13T00:33:21.833Z,84.21
2019-03-13T00:35:48.612Z,84.02
2019-03-13T00:38:15.311Z,83.82
2019-03-13T00:40:42.114Z,83.80
2019-03-13T00:43:08.814Z,83.46
2019-03-13T00:45:35.437Z,83.08
2019-03-13T00:48:02.240Z,82.59
2019-03-13T00:50:30.212Z,81.34
2019-03-13T00:52:57.014Z,80.62
2019-03-13T00:55:23.710Z,79.92
2019-03-13T00:57:50.516Z,79.06
2019-03-13T01:00:32.138Z,79.38
2019-03-13T01:02:58.933Z,78.88
2019-03-13T01:05:31.369Z,79.03
2019-03-13T01:07:58.066Z,79.45
2019-03-13T01:10:24.846Z,78.52
2019-03-13T01:12:51.543Z,77.74
2019-03-13T01:15:18.220Z,78.70
2019-03-13T01:17:44.912Z,78.50
2019-03-13T01:20:12.191Z,77.98
2019-03-13T01:22:38.975Z,77.80
2019-03-13T01:25:06.329Z,77.69
2019-03-13T01:27:32.901Z,77.42
2019-03-13T01:29:59.595Z,77.07
2019-03-13T01:32:45.942Z,77.66
2019-03-13T01:35:32.290Z,77.03
2019-03-13T01:37:58.991Z,77.30
2019-03-13T01:40:25.668Z,76.50
2019-03-13T01:42:52.363Z,76.42
2019-03-13T01:45:19.160Z,76.24
2019-03-13T01:47:45.950Z,75.35
2019-03-13T01:50:13.171Z,75.64
2019-03-13T01:52:39.965Z,75.46
2019-03-13T01:55:06.976Z,75.53
2019-03-13T01:57:33.759Z,75.04
2019-03-13T02:00:00.593Z,75.47
2019-03-13T02:02:27.279Z,75.61
2019-03-13T02:04:53.971Z,75.18
2019-03-13T02:07:21.633Z,75.23
2019-03-13T02:09:50.850Z,75.81
2019-03-13T02:12:21.900Z,75.66
2019-03-13T02:14:51.765Z,75.67
2019-03-13T02:17:20.613Z,75.18
2019-03-13T02:19:49.787Z,74.78
2019-03-13T02:22:19.699Z,74.05
2019-03-13T02:24:47.499Z,74.59
2019-03-13T02:27:14.913Z,74.84
2019-03-13T02:29:41.484Z,74.50
2019-03-13T02:32:08.328Z,74.47
2019-03-13T02:34:35.132Z,74.03
2019-03-13T02:37:01.843Z,74.11
2019-03-13T02:39:28.449Z,74.01
2019-03-13T02:41:55.096Z,74.39
2019-03-13T02:44:21.899Z,73.67
2019-03-13T02:46:48.673Z,73.28
2019-03-13T02:49:15.273Z,73.72
2019-03-13T02:51:41.869Z,74.03
2019-03-13T02:54:08.658Z,73.92
2019-03-13T02:56:35.367Z,74.19
2019-03-13T02:59:02.171Z,74.11
2019-03-13T03:01:35.145Z,73.91
2019-03-13T03:04:03.779Z,74.32
2019-03-13T03:06:30.695Z,74.57
2019-03-13T03:08:57.367Z,74.97
2019-03-13T03:11:24.077Z,74.47
2019-03-13T03:13:51.068Z,74.22
2019-03-13T03:16:17.875Z,74.61
2019-03-13T03:18:45.911Z,74.58
2019-03-13T03:21:12.720Z,74.32
2019-03-13T03:23:39.490Z,74.42
2019-03-13T03:26:06.292Z,73.44
2019-03-13T03:28:33.093Z,73.90
2019-03-13T03:30:59.774Z,73.87
2019-03-13T03:33:26.461Z,73.49
2019-03-13T03:35:53.165Z,73.01
2019-03-13T03:38:19.943Z,73.13
2019-03-13T03:40:46.771Z,73.45
2019-03-13T03:43:13.453Z,72.94
2019-03-13T03:45:40.146Z,72.39
2019-03-13T03:48:06.915Z,71.59
2019-03-13T03:50:33.703Z,71.49
2019-03-13T03:53:00.402Z,71.28
2019-03-13T03:55:26.997Z,71.18
2019-03-13T03:57:53.683Z,71.05
2019-03-13T04:00:20.498Z,71.14
2019-03-13T04:02:47.457Z,70.78
2019-03-13T04:05:14.265Z,71.16
2019-03-13T04:07:41.078Z,70.77
2019-03-13T04:10:08.193Z,70.87
2019-03-13T04:12:34.877Z,70.52
2019-03-13T04:15:01.800Z,70.46
2019-03-13T04:17:28.369Z,70.47
2019-03-13T04:19:55.141Z,70.28
2019-03-13T04:22:21.937Z,70.26
2019-03-13T04:24:49.012Z,69.88
2019-03-13T04:27:15.805Z,69.56
2019-03-13T04:29:42.588Z,69.08
2019-03-13T04:32:09.386Z,68.48
2019-03-13T04:34:35.985Z,68.40
2019-03-13T04:37:02.789Z,67.62
2019-03-13T04:39:29.464Z,67.87
2019-03-13T04:41:56.207Z,67.54
2019-03-13T04:44:22.890Z,67.38
2019-03-13T04:46:49.700Z,67.34
2019-03-13T04:49:16.467Z,66.95
2019-03-13T04:51:43.224Z,67.32
2019-03-13T04:54:09.925Z,67.25
2019-03-13T04:56:36.526Z,67.30
2019-03-13T04:59:03.228Z,67.36
2019-03-13T05:01:29.946Z,67.27
2019-03-13T05:03:56.528Z,67.33
2019-03-13T05:06:23.359Z,67.15
2019-03-13T05:08:57.277Z,66.86
2019-03-13T05:11:23.875Z,66.99
2019-03-13T05:13:50.549Z,67.42
2019-03-13T05:16:17.172Z,67.44
2019-03-13T05:18:43.856Z,67.11
2019-03-13T05:21:10.679Z,67.33
2019-03-13T05:23:37.287Z,66.96
2019-03-13T05:26:04.102Z,67.49
2019-03-13T05:28:31.180Z,67.56
2019-03-13T05:30:57.894Z,67.54
2019-03-13T05:33:24.605Z,67.19
2019-03-13T05:35:51.287Z,67.39
2019-03-13T05:38:17.974Z,67.37
2019-03-13T05:40:44.668Z,67.03
2019-03-13T05:43:11.844Z,67.39
2019-03-13T05:45:38.527Z,67.44
2019-03-13T05:48:05.339Z,67.81
2019-03-13T05:50:32.023Z,67.41
2019-03-13T05:52:58.725Z,67.91
2019-03-13T05:55:25.494Z,67.91
2019-03-13T05:57:52.191Z,67.27
2019-03-13T06:00:20.037Z,69.06
2019-03-13T06:02:47.986Z,69.42
2019-03-13T06:05:14.931Z,69.59
2019-03-13T06:07:41.616Z,69.36
2019-03-13T06:10:08.411Z,68.01
2019-03-13T06:12:35.057Z,69.17
2019-03-13T06:15:03.636Z,68.29
2019-03-13T06:17:30.400Z,67.88
2019-03-13T06:19:57.064Z,68.64
2019-03-13T06:22:23.761Z,67.75
2019-03-13T06:24:50.330Z,68.37
2019-03-13T06:27:16.911Z,68.72
2019-03-13T06:29:43.495Z,69.41
2019-03-13T06:32:10.165Z,69.23
2019-03-13T06:34:36.870Z,69.32
2019-03-13T06:37:03.584Z,70.97
2019-03-13T06:39:32.023Z,70.13
2019-03-13T06:41:58.773Z,71.05
2019-03-13T06:44:25.515Z,71.20
2019-03-13T06:46:52.297Z,70.31
2019-03-13T06:49:18.982Z,69.96
2019-03-13T06:51:45.679Z,69.96
2019-03-13T06:54:12.447Z,69.63
2019-03-13T06:56:39.196Z,70.99
2019-03-13T06:59:16.427Z,69.96
2019-03-13T07:02:05.521Z,69.96
2019-03-13T07:04:57.898Z,70.60
2019-03-13T07:07:53.284Z,71.89
2019-03-13T07:10:37.825Z,74.52
2019-03-13T07:13:27.155Z,74.52
2019-03-13T07:15:59.763Z,73.46
2019-03-13T07:18:43.973Z,73.44
2019-03-13T07:21:26.018Z,73.85
2019-03-13T07:24:05.289Z,73.44
2019-03-13T07:26:38.460Z,72.84
2019-03-13T07:29:23.164Z,71.58
2019-03-13T07:32:12.570Z,71.48
2019-03-13T07:35:01.753Z,71.29
2019-03-13T07:37:50.980Z,71.62
2019-03-13T07:40:33.939Z,70.17
2019-03-13T07:43:10.540Z,69.26
2019-03-13T07:45:47.851Z,68.78
2019-03-13T07:48:32.983Z,68.03
2019-03-13T07:51:15.076Z,68.03
2019-03-13T07:53:59.689Z,67.60
2019-03-13T07:56:44.507Z,67.77
2019-03-13T07:59:26.735Z,66.69
2019-03-13T08:02:00.212Z,67.37
2019-03-13T08:04:49.600Z,67.37
2019-03-13T08:07:34.677Z,66.15
2019-03-13T08:10:12.493Z,65.38
2019-03-13T08:12:58.842Z,64.32
2019-03-13T08:15:43.603Z,66.37
2019-03-13T08:18:23.603Z,66.07
2019-03-13T08:21:09.155Z,65.57
2019-03-13T08:23:58.348Z,66.26
2019-03-13T08:26:34.800Z,66.60
2019-03-13T08:29:10.069Z,66.47
2019-03-13T08:31:43.234Z,66.02
2019-03-13T08:34:41.519Z,66.70
2019-03-13T08:37:29.659Z,65.97
2019-03-13T08:40:30.637Z,65.54
2019-03-13T08:43:15.934Z,65.54
2019-03-13T08:46:05.414Z,67.12
2019-03-13T08:48:54.211Z,67.87
2019-03-13T08:51:39.189Z,66.43
2019-03-13T08:54:23.755Z,65.67
2019-03-13T08:56:56.410Z,65.58
2019-03-13T08:59:37.723Z,65.61
2019-03-13T09:02:09.767Z,64.82
2019-03-13T09:04:59.169Z,66.34
2019-03-13T09:07:40.218Z,67.16
2019-03-13T09:10:26.026Z,66.56
2019-03-13T09:13:05.549Z,65.65
2019-03-13T09:15:51.987Z,65.03
2019-03-13T09:18:39.331Z,65.61
2019-03-13T09:21:20.928Z,65.23
2019-03-13T09:24:05.779Z,62.09
2019-03-13T09:26:50.006Z,59.97
2019-03-13T09:29:25.689Z,61.87
2019-03-13T09:32:06.030Z,61.74
2019-03-13T09:34:54.827Z,63.46
2019-03-13T09:37:37.580Z,64.23
2019-03-13T09:40:14.021Z,68.30
2019-03-13T09:43:01.778Z,71.12
2019-03-13T09:46:06.312Z,69.11
2019-03-13T09:48:52.751Z,71.22
2019-03-13T09:51:29.926Z,72.76
2019-03-13T09:54:13.595Z,74.55
2019-03-13T09:57:02.356Z,74.74
2019-03-13T09:59:44.417Z,72.72
2019-03-13T10:02:20.045Z,73.28
2019-03-13T10:05:06.298Z,72.09
2019-03-13T10:07:47.660Z,70.28
2019-03-13T10:10:32.423Z,69.89
2019-03-13T10:13:07.318Z,68.77
2019-03-13T10:15:40.556Z,68.24
2019-03-13T10:18:19.026Z,66.95
2019-03-13T10:21:11.549Z,67.79
2019-03-13T10:23:45.492Z,67.18
2019-03-13T10:26:27.308Z,66.26
2019-03-13T10:29:13.769Z,65.80
2019-03-13T10:31:51.905Z,66.35
2019-03-13T10:34:26.048Z,66.15
2019-03-13T10:37:01.970Z,66.15
2019-03-13T10:39:42.867Z,65.42
2019-03-13T10:42:22.896Z,65.04
2019-03-13T10:45:13.382Z,65.06
2019-03-13T10:47:45.262Z,64.68
2019-03-13T10:50:33.691Z,64.18
2019-03-13T10:53:29.176Z,64.52
2019-03-13T10:56:14.016Z,64.58
2019-03-13T10:58:51.683Z,64.84
2019-03-13T11:01:24.097Z,66.07
2019-03-13T11:03:58.905Z,66.66
2019-03-13T11:06:54.808Z,69.35
2019-03-13T11:09:34.963Z,70.83
2019-03-13T11:12:39.513Z,70.45
2019-03-13T11:15:25.555Z,69.57
2019-03-13T11:18:03.818Z,70.47
2019-03-13T11:20:48.684Z,70.47
2019-03-13T11:23:33.743Z,72.63
2019-03-13T11:26:18.606Z,70.91
2019-03-13T11:29:20.079Z,70.91
2019-03-13T11:32:04.451Z,71.95
2019-03-13T11:34:56.820Z,73.88
2019-03-13T11:37:34.719Z,74.99
2019-03-13T11:40:23.780Z,76.70
2019-03-13T11:42:58.988Z,76.59
2019-03-13T11:45:39.564Z,76.45
2019-03-13T11:48:24.247Z,76.98
2019-03-13T11:51:13.481Z,76.08
2019-03-13T11:54:02.529Z,74.05
2019-03-13T11:56:54.906Z,75.80
2019-03-13T11:59:39.888Z,74.91
2019-03-13T12:02:29.329Z,74.91
2019-03-13T12:05:30.560Z,74.62
2019-03-13T12:08:28.754Z,74.05
2019-03-13T12:11:07.717Z,73.83
2019-03-13T12:13:48.356Z,74.43
2019-03-13T12:16:40.486Z,75.13
2019-03-13T12:19:26.910Z,74.31
2019-03-13T12:22:15.173Z,73.54
2019-03-13T12:25:00.393Z,72.55
2019-03-13T12:27:45.179Z,71.60
2019-03-13T12:30:19.906Z,72.65
2019-03-13T12:33:05.066Z,72.10
2019-03-13T12:35:40.365Z,71.07
2019-03-13T12:38:33.017Z,70.41
2019-03-13T12:41:28.142Z,69.64
2019-03-13T12:44:14.548Z,69.43
2019-03-13T12:47:00.883Z,69.79
2019-03-13T12:49:47.183Z,69.50
2019-03-13T12:52:32.100Z,68.97
2019-03-13T12:55:24.183Z,69.03
2019-03-13T12:58:14.687Z,70.37
2019-03-13T13:00:48.600Z,70.31
2019-03-13T13:03:37.663Z,69.10
2019-03-13T13:06:11.999Z,68.34
2019-03-13T13:08:54.487Z,68.73
2019-03-13T13:11:32.251Z,71.27
2019-03-13T13:14:18.657Z,69.58
2019-03-13T13:16:57.749Z,68.44
2019-03-13T13:19:24.420Z,67.98
2019-03-13T13:21:51.307Z,67.52
2019-03-13T13:24:18.107Z,67.88
2019-03-13T13:26:44.887Z,68.26
2019-03-13T13:29:11.695Z,69.22
2019-03-13T13:31:38.485Z,69.01
2019-03-13T13:34:05.299Z,68.77
2019-03-13T13:36:32.085Z,68.77
2019-03-13T13:38:58.781Z,68.38
2019-03-13T13:41:25.601Z,68.10
2019-03-13T13:43:52.419Z,68.41
2019-03-13T13:46:30.055Z,67.91
2019-03-13T13:48:56.742Z,68.21
2019-03-13T13:51:23.517Z,71.24
2019-03-13T13:53:50.214Z,74.80
2019-03-13T13:56:16.971Z,75.11
2019-03-13T13:58:43.761Z,74.07
2019-03-13T14:01:10.548Z,75.42
2019-03-13T14:03:37.230Z,77.80
2019-03-13T14:06:04.005Z,78.96
2019-03-13T14:08:30.680Z,79.30
2019-03-13T14:10:57.316Z,80.72
2019-03-13T14:13:24.001Z,80.72
2019-03-13T14:15:50.574Z,80.05
2019-03-13T14:18:17.369Z,80.95
2019-03-13T14:20:44.140Z,79.53
2019-03-13T14:23:10.851Z,81.84
2019-03-13T14:25:37.626Z,81.84
2019-03-13T14:28:04.422Z,81.94
2019-03-13T14:30:31.135Z,83.00
2019-03-13T14:32:57.923Z,82.82
2019-03-13T14:35:24.588Z,82.69
2019-03-13T14:37:52.118Z,82.69
2019-03-13T14:40:18.959Z,83.91
2019-03-13T14:42:45.747Z,83.91
2019-03-13T14:45:12.747Z,82.51
2019-03-13T14:47:39.568Z,83.37
2019-03-13T14:50:07.702Z,82.84
2019-03-13T14:52:34.301Z,83.42
2019-03-13T14:55:01.106Z,82.74
2019-03-13T14:57:27.775Z,83.86
2019-03-13T14:59:54.479Z,85.72
2019-03-13T15:02:21.274Z,86.84
2019-03-13T15:04:47.984Z,87.66
2019-03-13T15:07:14.652Z,86.81
2019-03-13T15:09:41.387Z,85.44
2019-03-13T15:12:08.151Z,85.15
2019-03-13T15:14:36.139Z,84.79
2019-03-13T15:17:02.828Z,84.89
2019-03-13T15:19:29.430Z,84.97
2019-03-13T15:21:56.446Z,84.84
2019-03-13T15:24:23.247Z,84.35
2019-03-13T15:26:50.255Z,84.65
2019-03-13T15:29:16.872Z,85.50
2019-03-13T15:31:43.521Z,84.71
2019-03-13T15:34:10.086Z,85.42
2019-03-13T15:36:36.690Z,85.28
2019-03-13T15:39:05.276Z,85.19
2019-03-13T15:41:31.989Z,85.52
2019-03-13T15:43:58.688Z,85.77
2019-03-13T15:46:25.313Z,85.51
2019-03-13T15:48:52.106Z,84.95
2019-03-13T15:51:18.710Z,85.09
2019-03-13T15:53:45.310Z,84.56
2019-03-13T15:56:12.150Z,84.56
2019-03-13T15:58:38.858Z,85.44
2019-03-13T16:01:06.149Z,84.79
2019-03-13T16:03:32.948Z,85.05
2019-03-13T16:05:59.641Z,84.91
2019-03-13T16:08:26.443Z,84.51
2019-03-13T16:10:53.139Z,84.75
2019-03-13T16:13:19.832Z,84.70
2019-03-13T16:15:46.676Z,84.55
2019-03-13T16:18:13.503Z,85.01
2019-03-13T16:20:40.178Z,84.95
2019-03-13T16:23:06.950Z,84.94
2019-03-13T16:25:33.744Z,84.29
2019-03-13T16:28:00.647Z,84.24
2019-03-13T16:30:29.787Z,84.79
2019-03-13T16:32:56.555Z,84.29
2019-03-13T16:35:26.315Z,83.93
2019-03-13T16:37:52.022Z,84.14
2019-03-13T16:40:18.867Z,83.68
2019-03-13T16:42:45.873Z,85.01
2019-03-13T16:45:13.141Z,85.83
2019-03-13T16:47:40.009Z,85.66
2019-03-13T16:50:09.075Z,86.34
2019-03-13T16:52:35.748Z,86.26
2019-03-13T16:55:02.740Z,86.42
2019-03-13T16:57:29.530Z,85.75
2019-03-13T17:00:00.880Z,85.85
2019-03-13T17:02:25.123Z,85.27
2019-03-13T17:04:51.726Z,85.39
2019-03-13T17:07:18.401Z,85.89
2019-03-13T17:09:45.206Z,85.35
2019-03-13T17:12:11.904Z,85.71
2019-03-13T17:14:38.701Z,85.39
2019-03-13T17:17:06.562Z,85.16
2019-03-13T17:19:33.349Z,85.03
2019-03-13T17:22:00.171Z,85.35
2019-03-13T17:24:26.963Z,85.54
2019-03-13T17:26:53.759Z,86.17
2019-03-13T17:29:20.573Z,86.31
2019-03-13T17:31:47.199Z,86.63
2019-03-13T17:34:13.980Z,86.59
2019-03-13T17:36:40.681Z,86.19
2019-03-13T17:39:07.476Z,86.13
2019-03-13T17:41:34.302Z,86.08
2019-03-13T17:44:01.083Z,85.96
2019-03-13T17:46:27.923Z,86.00
2019-03-13T17:48:54.564Z,85.75
2019-03-13T17:51:21.379Z,85.83
2019-03-13T17:53:48.056Z,86.13
2019-03-13T17:56:14.879Z,86.23
2019-03-13T17:58:41.602Z,86.01
2019-03-13T18:01:08.809Z,85.95
2019-03-13T18:03:55.231Z,86.05
2019-03-13T18:06:22.089Z,85.77
2019-03-13T18:08:48.774Z,85.43
2019-03-13T18:11:15.598Z,84.80
2019-03-13T18:13:42.375Z,84.02
2019-03-13T18:16:09.246Z,83.48
2019-03-13T18:18:36.069Z,83.16
2019-03-13T18:21:02.859Z,83.50
2019-03-13T18:23:29.541Z,82.92
2019-03-13T18:25:56.251Z,83.28
2019-03-13T18:28:22.934Z,82.99
2019-03-13T18:30:49.735Z,83.43
2019-03-13T18:33:16.501Z,83.64
2019-03-13T18:35:43.286Z,83.22
2019-03-13T18:38:10.065Z,82.49
2019-03-13T18:40:36.900Z,82.64
2019-03-13T18:43:03.984Z,82.49
2019-03-13T18:45:32.782Z,82.78
2019-03-13T18:47:59.580Z,81.67
2019-03-13T18:50:27.740Z,82.04
2019-03-13T18:52:54.473Z,81.88
2019-03-13T18:55:21.509Z,82.22
2019-03-13T18:57:50.740Z,81.97
2019-03-13T19:00:19.511Z,82.17
2019-03-13T19:02:46.311Z,83.74
2019-03-13T19:05:13.195Z,84.74
2019-03-13T19:07:40.006Z,85.64
2019-03-13T19:10:07.600Z,85.83
2019-03-13T19:12:34.381Z,86.13
2019-03-13T19:15:01.250Z,85.21
2019-03-13T19:17:28.059Z,84.89
2019-03-13T19:19:54.926Z,84.33
2019-03-13T19:22:21.741Z,84.38
2019-03-13T19:24:48.613Z,84.52
2019-03-13T19:27:15.290Z,85.22
2019-03-13T19:29:42.133Z,84.96
2019-03-13T19:32:08.973Z,85.12
2019-03-13T19:34:35.655Z,85.67
2019-03-13T19:37:02.512Z,85.62
2019-03-13T19:39:32.162Z,85.87
2019-03-13T19:41:58.978Z,85.73
2019-03-13T19:44:25.775Z,85.32
2019-03-13T19:46:52.381Z,83.95
2019-03-13T19:49:19.157Z,84.63
2019-03-13T19:51:45.865Z,84.74
2019-03-13T19:54:12.676Z,84.07
2019-03-13T19:56:39.411Z,84.38
2019-03-13T19:59:06.230Z,83.78
2019-03-13T20:01:32.954Z,84.14
2019-03-13T20:04:01.256Z,85.05
2019-03-13T20:06:28.044Z,85.67
2019-03-13T20:08:54.855Z,86.31
2019-03-13T20:11:21.695Z,86.41
2019-03-13T20:13:48.530Z,86.36
2019-03-13T20:16:15.209Z,86.43
2019-03-13T20:18:41.908Z,86.46
2019-03-13T20:21:08.720Z,86.59
2019-03-13T20:23:35.517Z,86.60
2019-03-13T20:26:02.337Z,86.19
2019-03-13T20:28:29.122Z,86.18
2019-03-13T20:30:55.928Z,86.34
2019-03-13T20:33:22.732Z,86.41
2019-03-13T20:35:49.509Z,86.25
2019-03-13T20:38:16.319Z,85.78
2019-03-13T20:40:43.082Z,85.01
2019-03-13T20:43:09.909Z,85.28
2019-03-13T20:45:36.692Z,85.58
2019-03-13T20:48:03.512Z,85.26
2019-03-13T20:50:37.260Z,85.49
2019-03-13T20:53:02.376Z,85.50
2019-03-13T20:55:29.068Z,85.99
2019-03-13T20:57:55.883Z,86.14
2019-03-13T21:00:22.906Z,86.25
2019-03-13T21:02:49.719Z,85.41
2019-03-13T21:05:16.492Z,85.03
2019-03-13T21:07:43.278Z,85.67
2019-03-13T21:10:10.307Z,86.01
2019-03-13T21:12:37.092Z,85.81
2019-03-13T21:15:04.096Z,85.98
2019-03-13T21:17:30.896Z,85.83
2019-03-13T21:19:57.473Z,85.64
2019-03-13T21:22:24.440Z,85.45
2019-03-13T21:24:51.265Z,85.17
2019-03-13T21:27:17.934Z,84.89
2019-03-13T21:29:44.733Z,84.89
2019-03-13T21:32:11.422Z,84.79
2019-03-13T21:34:38.142Z,84.91
2019-03-13T21:37:04.936Z,84.91
2019-03-13T21:39:31.635Z,85.20
2019-03-13T21:41:58.248Z,84.79
2019-03-13T21:44:24.930Z,83.58
2019-03-13T21:46:51.637Z,82.99
2019-03-13T21:49:18.427Z,83.99
2019-03-13T21:51:44.997Z,83.86
2019-03-13T21:54:11.695Z,84.50
2019-03-13T21:56:38.462Z,84.39
2019-03-13T21:59:05.256Z,83.95
2019-03-13T22:01:32.037Z,83.10
2019-03-13T22:03:58.743Z,82.86
2019-03-13T22:06:29.096Z,82.92
2019-03-13T22:08:54.202Z,83.50
2019-03-13T22:11:20.776Z,83.31
2019-03-13T22:13:47.571Z,83.32
2019-03-13T22:16:14.271Z,83.00
2019-03-13T22:18:40.997Z,83.00
2019-03-13T22:21:07.632Z,83.30
2019-03-13T22:23:34.336Z,82.84
2019-03-13T22:26:01.168Z,81.99
2019-03-13T22:28:27.852Z,81.95
2019-03-13T22:30:54.626Z,82.62
2019-03-13T22:33:21.338Z,83.88
2019-03-13T22:35:48.221Z,84.06
2019-03-13T22:38:14.921Z,83.59
2019-03-13T22:40:41.693Z,84.19
2019-03-13T22:43:08.424Z,83.81
2019-03-13T22:45:35.104Z,83.86
2019-03-13T22:48:01.956Z,83.98
2019-03-13T22:50:28.640Z,83.75
2019-03-13T22:52:55.424Z,83.89
2019-03-13T22:55:22.489Z,84.33
2019-03-13T22:57:49.195Z,83.81
2019-03-13T23:00:26.798Z,83.15
2019-03-13T23:02:53.800Z,83.22
2019-03-13T23:05:20.661Z,84.03
2019-03-13T23:07:47.699Z,84.85
2019-03-13T23:10:24.624Z,84.98
2019-03-13T23:12:51.475Z,85.54
2019-03-13T23:15:18.219Z,85.77
2019-03-13T23:17:44.987Z,86.30
2019-03-13T23:20:11.787Z,86.22
2019-03-13T23:22:38.486Z,86.39
2019-03-13T23:25:05.283Z,86.25
2019-03-13T23:27:32.051Z,86.46
2019-03-13T23:29:58.744Z,86.83
2019-03-13T23:32:25.330Z,86.72
2019-03-13T23:34:52.129Z,87.39
2019-03-13T23:37:18.798Z,87.40
2019-03-13T23:39:45.487Z,87.85
2019-03-13T23:42:12.287Z,87.67
2019-03-13T23:44:39.079Z,87.92
2019-03-13T23:47:05.749Z,87.90
2019-03-13T23:49:32.542Z,88.09
2019-03-13T23:51:59.111Z,87.93
2019-03-13T23:54:25.705Z,87.92
2019-03-13T23:56:52.396Z,88.01
2019-03-13T23:59:19.187Z,87.93
